Ingleside, Nebraska
Current Conditions -  °F | °C
As of 5:53 PM on Friday 28 Nov 2014 (Local Time) from KHSI Reporting Station
Clear Clear  
Wind Chill: 59°   Ceiling: Unl
Heat Index: 59°   Visibility: 10mi
Dew Point: 23°   Wind: 7mph
Humidity: 25%   Direction: 240°WSW
Pressure: 29.66"   Gusts: NA
Location:  40.5551°N, 98.369°W
Report Text: KHSI 282353Z AUTO 24006KT 10SM CLR 15/M05 A2966 RMK AO2 SLP053 T01501050 10233 20144 56003
Loading
Personal Weather Stations






























Interactive Weather Map New forecast layout! Learn more

10-Day Weather Forecast

Advertisements
Track Severe Weather on mobile